createdAt,value
2023-02-05T00:01:36.100Z,5.80
2023-02-05T00:04:06.303Z,7.33
2023-02-05T00:06:33.288Z,3.87
2023-02-05T00:09:00.315Z,6.63
2023-02-05T00:11:30.443Z,8.17
2023-02-05T00:13:57.448Z,5.80
2023-02-05T00:16:25.732Z,5.20
2023-02-05T00:18:53.907Z,4.53
2023-02-05T00:21:23.326Z,4.67
2023-02-05T00:23:51.492Z,4.23
2023-02-05T00:26:18.756Z,6.07
2023-02-05T00:28:46.459Z,4.77
2023-02-05T00:31:20.391Z,4.40
2023-02-05T00:33:49.167Z,5.20
2023-02-05T00:36:16.845Z,6.60
2023-02-05T00:38:45.411Z,6.73
2023-02-05T00:41:13.317Z,4.43
2023-02-05T00:43:41.303Z,5.67
2023-02-05T00:46:08.608Z,5.90
2023-02-05T00:48:35.945Z,6.07
2023-02-05T00:51:03.290Z,5.80
2023-02-05T00:53:30.210Z,4.50
2023-02-05T00:55:57.472Z,5.57
2023-02-05T00:58:24.714Z,7.20
2023-02-05T01:00:52.162Z,5.40
2023-02-05T01:03:20.189Z,6.87
2023-02-05T01:05:46.997Z,6.43
2023-02-05T01:08:15.165Z,5.73
2023-02-05T01:10:47.192Z,4.77
2023-02-05T01:13:16.344Z,5.83
2023-02-05T01:15:44.659Z,4.37
2023-02-05T01:18:11.545Z,4.63
2023-02-05T01:20:40.246Z,6.20
2023-02-05T01:23:14.821Z,4.93
2023-02-05T01:25:41.684Z,6.53
2023-02-05T01:28:08.604Z,5.27
2023-02-05T01:30:36.328Z,4.77
2023-02-05T01:33:04.353Z,6.37
2023-02-05T01:35:32.163Z,7.23
2023-02-05T01:37:59.038Z,4.07
2023-02-05T01:40:26.162Z,6.53
2023-02-05T01:42:53.060Z,4.77
2023-02-05T01:45:22.676Z,5.43
2023-02-05T01:47:51.030Z,5.67
2023-02-05T01:50:22.403Z,4.10
2023-02-05T01:52:49.916Z,4.63
2023-02-05T01:55:17.561Z,5.70
2023-02-05T01:57:45.746Z,6.13
2023-02-05T02:00:12.915Z,5.47
2023-02-05T02:02:39.696Z,5.43
2023-02-05T02:05:15.346Z,3.77
2023-02-05T02:07:42.650Z,5.90
2023-02-05T02:10:14.872Z,6.23
2023-02-05T02:12:45.863Z,4.83
2023-02-05T02:15:17.040Z,4.40
2023-02-05T02:17:47.739Z,5.30
2023-02-05T02:20:22.108Z,5.90
2023-02-05T02:22:54.880Z,6.30
2023-02-05T02:25:47.316Z,4.17
2023-02-05T02:28:21.562Z,6.80
2023-02-05T02:31:23.770Z,5.17
2023-02-05T02:34:01.238Z,3.80
2023-02-05T02:36:46.934Z,5.37
2023-02-05T02:39:26.371Z,6.37
2023-02-05T02:42:04.846Z,6.53
2023-02-05T02:44:47.721Z,4.73
2023-02-05T02:47:19.052Z,4.67
2023-02-05T02:49:53.264Z,6.10
2023-02-05T02:52:23.268Z,5.07
2023-02-05T02:54:53.949Z,5.47
2023-02-05T02:57:26.480Z,5.87
2023-02-05T02:59:56.682Z,5.37
2023-02-05T03:02:24.966Z,6.03
2023-02-05T03:05:04.170Z,5.47
2023-02-05T03:07:39.170Z,5.33
2023-02-05T03:10:27.820Z,4.53
2023-02-05T03:12:56.034Z,7.37
2023-02-05T03:15:23.141Z,4.40
2023-02-05T03:17:52.661Z,5.63
2023-02-05T03:20:59.131Z,4.90
2023-02-05T03:23:30.649Z,5.40
2023-02-05T03:25:57.676Z,5.87
2023-02-05T03:28:27.402Z,6.67
2023-02-05T03:31:09.903Z,4.80
2023-02-05T03:33:56.971Z,5.93
2023-02-05T03:36:40.820Z,5.77
2023-02-05T03:39:25.086Z,4.40
2023-02-05T03:42:18.052Z,3.87
2023-02-05T03:45:06.357Z,4.20
2023-02-05T03:47:45.143Z,4.03
2023-02-05T03:50:33.332Z,3.33
2023-02-05T03:53:12.475Z,4.43
2023-02-05T03:55:46.916Z,3.70
2023-02-05T03:58:39.881Z,3.73
2023-02-05T04:01:08.969Z,5.67
2023-02-05T04:03:35.990Z,4.90
2023-02-05T04:06:03.858Z,3.30
2023-02-05T04:08:30.775Z,5.13
2023-02-05T04:10:57.730Z,5.50
2023-02-05T04:13:24.715Z,5.10
2023-02-05T04:15:52.092Z,4.07
2023-02-05T04:18:19.201Z,3.03
2023-02-05T04:20:45.988Z,5.10
2023-02-05T04:23:13.255Z,4.47
2023-02-05T04:25:41.002Z,4.53
2023-02-05T04:28:08.129Z,3.63
2023-02-05T04:30:35.174Z,5.27
2023-02-05T04:33:02.178Z,2.90
2023-02-05T04:35:29.174Z,3.60
2023-02-05T04:37:56.227Z,5.73
2023-02-05T04:40:23.264Z,3.73
2023-02-05T04:42:49.963Z,2.40
2023-02-05T04:45:16.823Z,4.83
2023-02-05T04:47:43.692Z,4.10
2023-02-05T04:50:10.880Z,3.40
2023-02-05T04:52:37.722Z,4.23
2023-02-05T04:55:04.798Z,3.90
2023-02-05T04:57:34.428Z,4.43
2023-02-05T05:00:01.542Z,3.60
2023-02-05T05:02:28.502Z,2.80
2023-02-05T05:04:55.351Z,4.43
2023-02-05T05:07:22.512Z,3.83
2023-02-05T05:09:51.015Z,3.77
2023-02-05T05:12:19.190Z,5.50
2023-02-05T05:14:46.148Z,3.77
2023-02-05T05:17:14.912Z,4.47
2023-02-05T05:19:41.912Z,4.07
2023-02-05T05:22:08.876Z,3.20
2023-02-05T05:24:35.826Z,3.17
2023-02-05T05:27:02.713Z,3.03
2023-02-05T05:29:29.956Z,3.37
2023-02-05T05:31:56.835Z,3.53
2023-02-05T05:34:23.824Z,5.50
2023-02-05T05:36:50.802Z,3.77
2023-02-05T05:39:36.529Z,4.73
2023-02-05T05:42:22.374Z,3.47
2023-02-05T05:44:52.419Z,4.20
2023-02-05T05:47:19.882Z,3.67
2023-02-05T05:49:47.446Z,3.57
2023-02-05T05:52:14.690Z,3.07
2023-02-05T05:54:42.550Z,4.30
2023-02-05T05:57:09.564Z,4.63
2023-02-05T05:59:36.688Z,3.53
2023-02-05T06:02:04.570Z,3.00
2023-02-05T06:04:31.912Z,3.77
2023-02-05T06:06:59.599Z,4.60
2023-02-05T06:09:26.732Z,4.13
2023-02-05T06:11:53.786Z,3.30
2023-02-05T06:14:20.789Z,4.93
2023-02-05T06:16:47.594Z,3.20
2023-02-05T06:19:14.731Z,4.40
2023-02-05T06:21:41.699Z,2.80
2023-02-05T06:24:08.653Z,3.53
2023-02-05T06:26:35.748Z,2.90
2023-02-05T06:29:03.601Z,3.20
2023-02-05T06:31:33.609Z,4.90
2023-02-05T06:34:01.618Z,4.33
2023-02-05T06:36:28.546Z,4.07
2023-02-05T06:38:58.000Z,3.23
2023-02-05T06:41:25.027Z,3.73
2023-02-05T06:43:52.032Z,4.50
2023-02-05T06:46:18.723Z,3.40
2023-02-05T06:48:45.781Z,3.33
2023-02-05T06:51:13.704Z,4.00
2023-02-05T06:53:40.755Z,4.37
2023-02-05T06:56:07.988Z,4.37
2023-02-05T06:58:36.944Z,5.60
2023-02-05T07:01:03.997Z,4.73
2023-02-05T07:03:30.650Z,3.23
2023-02-05T07:06:02.719Z,3.33
2023-02-05T07:08:29.774Z,4.43
2023-02-05T07:10:56.761Z,4.47
2023-02-05T07:13:23.792Z,5.70
2023-02-05T07:15:50.874Z,4.00
2023-02-05T07:18:17.640Z,7.63
2023-02-05T07:20:44.605Z,3.60
2023-02-05T07:23:11.642Z,6.20
2023-02-05T07:25:38.756Z,4.63
2023-02-05T07:28:07.511Z,4.17
2023-02-05T07:30:36.629Z,4.00
2023-02-05T07:33:04.124Z,7.80
2023-02-05T07:35:32.924Z,4.53
2023-02-05T07:38:00.409Z,5.83
2023-02-05T07:40:27.417Z,8.10
2023-02-05T07:42:54.197Z,7.10
2023-02-05T07:45:21.180Z,5.10
2023-02-05T07:47:50.756Z,3.87
2023-02-05T07:50:17.986Z,7.23
2023-02-05T07:52:44.823Z,3.90
2023-02-05T07:55:12.081Z,5.50
2023-02-05T07:57:38.919Z,4.80
2023-02-05T08:00:06.897Z,6.03
2023-02-05T08:02:33.951Z,5.50
2023-02-05T08:05:00.930Z,6.20
2023-02-05T08:07:27.978Z,4.50
2023-02-05T08:09:54.977Z,3.63
2023-02-05T08:12:24.581Z,4.33
2023-02-05T08:14:52.878Z,4.03
2023-02-05T08:17:19.951Z,5.27
2023-02-05T08:19:46.959Z,7.23
2023-02-05T08:22:13.931Z,4.47
2023-02-05T08:24:40.859Z,5.33
2023-02-05T08:27:08.018Z,4.17
2023-02-05T08:29:34.976Z,3.70
2023-02-05T08:32:04.872Z,4.37
2023-02-05T08:34:31.691Z,3.80
2023-02-05T08:36:59.969Z,4.30
2023-02-05T08:39:27.255Z,5.30
2023-02-05T08:41:56.877Z,4.43
2023-02-05T08:44:25.740Z,5.63
2023-02-05T08:46:52.555Z,6.63
2023-02-05T08:49:19.462Z,5.90
2023-02-05T08:51:46.799Z,5.00
2023-02-05T08:54:15.331Z,7.70
2023-02-05T08:56:44.330Z,4.20
2023-02-05T08:59:12.392Z,5.93
2023-02-05T09:01:43.174Z,4.63
2023-02-05T09:04:15.201Z,4.33
2023-02-05T09:06:42.833Z,4.43
2023-02-05T09:09:10.269Z,5.27
2023-02-05T09:11:37.611Z,6.57
2023-02-05T09:14:04.870Z,3.90
2023-02-05T09:16:34.302Z,4.23
2023-02-05T09:19:01.919Z,4.47
2023-02-05T09:21:28.860Z,6.13
2023-02-05T09:23:56.172Z,4.20
2023-02-05T09:26:23.790Z,6.83
2023-02-05T09:28:50.792Z,4.10
2023-02-05T09:31:20.336Z,3.97
2023-02-05T09:33:47.444Z,4.67
2023-02-05T09:36:17.294Z,4.73
2023-02-05T09:38:45.979Z,4.53
2023-02-05T09:41:13.013Z,4.83
2023-02-05T09:43:57.986Z,5.73
2023-02-05T09:46:28.251Z,5.27
2023-02-05T09:49:22.389Z,5.80
2023-02-05T09:51:58.646Z,7.27
2023-02-05T09:54:37.028Z,6.10
2023-02-05T09:57:15.050Z,4.63
2023-02-05T09:59:47.087Z,3.83
2023-02-05T10:02:30.076Z,4.10
2023-02-05T10:04:57.251Z,3.80
2023-02-05T10:07:44.391Z,5.20
2023-02-05T10:10:24.816Z,5.93
2023-02-05T10:13:03.845Z,5.77
2023-02-05T10:15:58.453Z,5.47
2023-02-05T10:18:34.781Z,4.23
2023-02-05T10:21:19.985Z,4.77
2023-02-05T10:24:12.325Z,5.77
2023-02-05T10:26:54.307Z,5.20
2023-02-05T10:29:49.689Z,5.13
2023-02-05T10:32:24.924Z,5.80
2023-02-05T10:35:04.266Z,5.47
2023-02-05T10:37:38.225Z,6.77
2023-02-05T10:40:16.744Z,5.60
2023-02-05T10:43:26.818Z,4.33
2023-02-05T10:45:55.696Z,5.43
2023-02-05T10:48:51.242Z,4.17
2023-02-05T10:51:29.626Z,6.13
2023-02-05T10:53:58.353Z,4.77
2023-02-05T10:56:25.185Z,5.30
2023-02-05T10:59:02.814Z,6.20
2023-02-05T11:01:36.216Z,7.10
2023-02-05T11:04:15.585Z,5.97
2023-02-05T11:06:48.909Z,4.90
2023-02-05T11:09:24.928Z,7.47
2023-02-05T11:11:53.934Z,5.23
2023-02-05T11:14:34.738Z,7.70
2023-02-05T11:17:22.779Z,5.67
2023-02-05T11:19:59.296Z,5.83
2023-02-05T11:22:35.511Z,8.77
2023-02-05T11:25:19.243Z,6.30
2023-02-05T11:28:06.846Z,6.77
2023-02-05T11:30:53.688Z,8.20
2023-02-05T11:33:23.365Z,8.30
2023-02-05T11:36:03.164Z,6.93
2023-02-05T11:38:53.605Z,8.50
2023-02-05T11:41:31.862Z,6.00
2023-02-05T11:44:01.939Z,7.10
2023-02-05T11:46:34.198Z,7.53
2023-02-05T11:49:05.322Z,8.40
2023-02-05T11:51:34.940Z,6.57
2023-02-05T11:54:07.848Z,9.27
2023-02-05T11:56:34.872Z,8.07
2023-02-05T11:59:05.796Z,7.37
2023-02-05T12:01:35.037Z,8.33
2023-02-05T12:04:19.157Z,9.20
2023-02-05T12:07:10.770Z,8.47
2023-02-05T12:09:37.927Z,6.77
2023-02-05T12:12:34.169Z,9.83
2023-02-05T12:15:00.871Z,8.60
2023-02-05T12:17:50.332Z,7.87
2023-02-05T12:20:39.211Z,6.60
2023-02-05T12:23:32.107Z,8.93
2023-02-05T12:26:30.968Z,7.23
2023-02-05T12:29:05.032Z,7.17
2023-02-05T12:31:56.827Z,9.13
2023-02-05T12:34:59.299Z,11.00
2023-02-05T12:38:00.387Z,8.93
2023-02-05T12:40:43.350Z,9.27
2023-02-05T12:43:28.919Z,6.77
2023-02-05T12:46:02.530Z,7.90
2023-02-05T12:49:10.871Z,8.77
2023-02-05T12:52:14.850Z,8.70
2023-02-05T12:54:50.663Z,9.67
2023-02-05T12:57:23.874Z,7.63
2023-02-05T13:00:03.999Z,7.20
2023-02-05T13:02:48.218Z,9.77
2023-02-05T13:05:29.987Z,9.77
2023-02-05T13:08:39.578Z,8.37
2023-02-05T13:11:17.616Z,7.57
2023-02-05T13:13:59.199Z,8.00
2023-02-05T13:16:37.997Z,9.40
2023-02-05T13:19:39.581Z,7.17
2023-02-05T13:22:38.642Z,8.10
2023-02-05T13:25:38.226Z,9.20
2023-02-05T13:28:40.966Z,9.17
2023-02-05T13:31:42.428Z,10.13
2023-02-05T13:34:13.385Z,8.43
2023-02-05T13:36:48.811Z,9.23
2023-02-05T13:39:33.794Z,8.77
2023-02-05T13:42:42.567Z,8.00
2023-02-05T13:45:41.343Z,7.67
2023-02-05T13:48:45.886Z,11.23
2023-02-05T13:51:35.816Z,8.87
2023-02-05T13:54:24.243Z,12.77
2023-02-05T13:57:32.710Z,11.93
2023-02-05T14:00:01.423Z,8.83
2023-02-05T14:02:39.594Z,7.93
2023-02-05T14:05:07.812Z,10.07
2023-02-05T14:07:43.516Z,8.27
2023-02-05T14:10:33.076Z,8.80
2023-02-05T14:13:34.549Z,6.37
2023-02-05T14:16:36.388Z,10.10
2023-02-05T14:19:15.882Z,11.67
2023-02-05T14:21:45.537Z,9.60
2023-02-05T14:24:46.407Z,10.10
2023-02-05T14:27:34.318Z,8.53
2023-02-05T14:30:42.721Z,9.20
2023-02-05T14:33:42.526Z,8.53
2023-02-05T14:36:18.664Z,19.27
2023-02-05T14:39:01.255Z,27.93
2023-02-05T14:41:36.001Z,14.20
2023-02-05T14:44:12.014Z,17.30
2023-02-05T14:46:46.512Z,10.53
2023-02-05T14:49:38.250Z,12.37
2023-02-05T14:52:28.057Z,15.77
2023-02-05T14:55:01.344Z,12.97
2023-02-05T14:57:50.006Z,15.37
2023-02-05T15:00:31.460Z,11.53
2023-02-05T15:03:17.050Z,13.67
2023-02-05T15:05:50.351Z,15.20
2023-02-05T15:08:22.380Z,15.20
2023-02-05T15:10:54.997Z,16.97
2023-02-05T15:13:22.675Z,13.57
2023-02-05T15:16:13.242Z,14.50
2023-02-05T15:18:41.617Z,17.50
2023-02-05T15:21:31.679Z,15.10
2023-02-05T15:24:27.114Z,19.33
2023-02-05T15:27:14.757Z,17.90
2023-02-05T15:29:57.510Z,15.20
2023-02-05T15:32:39.434Z,10.87
2023-02-05T15:35:13.546Z,9.97
2023-02-05T15:37:50.537Z,15.43
2023-02-05T15:40:35.116Z,12.93
2023-02-05T15:43:20.608Z,12.00
2023-02-05T15:45:48.012Z,10.77
2023-02-05T15:48:19.173Z,9.27
2023-02-05T15:50:51.851Z,10.30
2023-02-05T15:53:43.339Z,12.00
2023-02-05T15:56:23.934Z,11.07
2023-02-05T15:58:59.012Z,11.37
2023-02-05T16:01:39.161Z,11.13
2023-02-05T16:04:34.209Z,11.43
2023-02-05T16:07:02.308Z,12.80
2023-02-05T16:09:35.120Z,15.60
2023-02-05T16:12:14.872Z,12.73
2023-02-05T16:14:41.721Z,16.47
2023-02-05T16:17:11.514Z,14.60
2023-02-05T16:20:04.068Z,14.00
2023-02-05T16:22:49.585Z,16.10
2023-02-05T16:25:33.316Z,15.30
2023-02-05T16:28:07.471Z,15.27
2023-02-05T16:30:43.038Z,18.37
2023-02-05T16:33:42.527Z,15.80
2023-02-05T16:36:19.861Z,14.73
2023-02-05T16:38:53.916Z,17.87
2023-02-05T16:41:27.599Z,13.57
2023-02-05T16:44:01.317Z,21.43
2023-02-05T16:46:30.869Z,29.23
2023-02-05T16:49:03.633Z,19.37
2023-02-05T16:51:36.635Z,18.00
2023-02-05T16:54:31.378Z,14.40
2023-02-05T16:57:16.231Z,15.53
2023-02-05T16:59:53.566Z,37.27
2023-02-05T17:02:29.482Z,25.63
2023-02-05T17:04:59.933Z,18.00
2023-02-05T17:07:27.533Z,15.67
2023-02-05T17:10:09.406Z,16.87
2023-02-05T17:12:39.681Z,16.90
2023-02-05T17:15:15.395Z,20.33
2023-02-05T17:17:57.089Z,21.53
2023-02-05T17:20:28.676Z,17.47
2023-02-05T17:23:03.429Z,22.50
2023-02-05T17:25:58.742Z,29.53
2023-02-05T17:28:27.657Z,23.10
2023-02-05T17:31:02.844Z,22.27
2023-02-05T17:33:30.059Z,20.90
2023-02-05T17:35:57.102Z,22.77
2023-02-05T17:38:24.075Z,22.07
2023-02-05T17:41:11.128Z,18.03
2023-02-05T17:43:39.378Z,23.57
2023-02-05T17:46:17.065Z,20.50
2023-02-05T17:48:44.873Z,20.70
2023-02-05T17:51:21.226Z,19.33
2023-02-05T17:53:49.137Z,21.27
2023-02-05T17:56:16.305Z,19.73
2023-02-05T17:58:43.122Z,19.97
2023-02-05T18:01:12.151Z,23.10
2023-02-05T18:03:39.487Z,20.37
2023-02-05T18:06:07.186Z,19.87
2023-02-05T18:08:37.391Z,22.23
2023-02-05T18:11:04.403Z,19.97
2023-02-05T18:13:31.467Z,18.53
2023-02-05T18:16:03.457Z,17.93
2023-02-05T18:18:31.911Z,21.73
2023-02-05T18:20:59.352Z,18.47
2023-02-05T18:23:29.184Z,20.53
2023-02-05T18:25:57.643Z,19.90
2023-02-05T18:28:25.138Z,21.73
2023-02-05T18:31:04.565Z,22.00
2023-02-05T18:33:31.793Z,22.80
2023-02-05T18:36:04.314Z,20.40
2023-02-05T18:38:32.033Z,25.40
2023-02-05T18:41:07.734Z,28.40
2023-02-05T18:43:36.710Z,19.23
2023-02-05T18:46:11.886Z,21.43
2023-02-05T18:48:43.840Z,24.37
2023-02-05T18:51:12.788Z,29.60
2023-02-05T18:53:40.842Z,23.63
2023-02-05T18:56:09.890Z,29.83
2023-02-05T18:58:37.040Z,23.43
2023-02-05T19:01:12.459Z,25.57
2023-02-05T19:03:41.535Z,25.87
2023-02-05T19:06:09.744Z,24.57
2023-02-05T19:08:37.576Z,26.07
2023-02-05T19:11:13.598Z,25.70
2023-02-05T19:13:41.016Z,29.37
2023-02-05T19:16:16.396Z,33.33
2023-02-05T19:18:45.346Z,31.67
2023-02-05T19:21:17.688Z,30.40
2023-02-05T19:23:49.078Z,29.17
2023-02-05T19:26:21.723Z,32.70
2023-02-05T19:28:56.920Z,31.17
2023-02-05T19:31:26.353Z,34.27
2023-02-05T19:33:53.453Z,32.67
2023-02-05T19:36:20.518Z,34.37
2023-02-05T19:38:47.405Z,35.17
2023-02-05T19:41:19.636Z,34.47
2023-02-05T19:43:51.983Z,31.70
2023-02-05T19:46:21.492Z,36.13
2023-02-05T19:48:49.450Z,34.70
2023-02-05T19:51:17.905Z,34.27
2023-02-05T19:53:45.681Z,32.77
2023-02-05T19:56:23.413Z,32.87
2023-02-05T19:58:53.969Z,36.27
2023-02-05T20:01:27.248Z,35.50
2023-02-05T20:03:59.822Z,32.47
2023-02-05T20:06:29.435Z,30.67
2023-02-05T20:08:57.220Z,31.57
2023-02-05T20:11:24.049Z,29.83
2023-02-05T20:13:50.872Z,26.90
2023-02-05T20:16:21.218Z,30.33
2023-02-05T20:18:56.828Z,24.83
2023-02-05T20:21:26.856Z,27.40
2023-02-05T20:23:54.403Z,26.97
2023-02-05T20:26:24.420Z,27.23
2023-02-05T20:29:15.282Z,29.37
2023-02-05T20:31:45.707Z,27.27
2023-02-05T20:34:18.875Z,29.47
2023-02-05T20:36:51.478Z,28.37
2023-02-05T20:39:19.398Z,30.10
2023-02-05T20:41:48.460Z,29.63
2023-02-05T20:44:16.339Z,28.03
2023-02-05T20:46:43.799Z,28.10
2023-02-05T20:49:11.337Z,30.67
2023-02-05T20:51:38.736Z,29.20
2023-02-05T20:54:06.162Z,29.97
2023-02-05T20:56:33.955Z,26.90
2023-02-05T20:59:05.325Z,30.93
2023-02-05T21:01:34.274Z,27.03
2023-02-05T21:04:03.991Z,30.33
2023-02-05T21:06:33.200Z,31.10
2023-02-05T21:09:00.542Z,26.80
2023-02-05T21:11:29.514Z,26.60
2023-02-05T21:13:56.832Z,30.70
2023-02-05T21:16:25.244Z,29.20
2023-02-05T21:18:53.890Z,33.07
2023-02-05T21:21:29.635Z,31.03
2023-02-05T21:24:02.133Z,29.70
2023-02-05T21:26:57.217Z,32.27
2023-02-05T21:29:23.948Z,28.63
2023-02-05T21:31:54.082Z,31.03
2023-02-05T21:34:24.007Z,30.63
2023-02-05T21:36:51.772Z,32.43
2023-02-05T21:39:22.441Z,30.63
2023-02-05T21:41:54.480Z,32.13
2023-02-05T21:44:21.689Z,31.40
2023-02-05T21:46:48.818Z,35.10
2023-02-05T21:49:15.778Z,38.27
2023-02-05T21:51:42.889Z,36.70
2023-02-05T21:54:11.214Z,34.33
2023-02-05T21:56:41.204Z,35.90
2023-02-05T21:59:08.824Z,37.27
2023-02-05T22:01:38.161Z,33.23
2023-02-05T22:04:12.316Z,33.37
2023-02-05T22:06:39.938Z,31.70
2023-02-05T22:09:09.393Z,29.30
2023-02-05T22:11:37.146Z,31.23
2023-02-05T22:14:03.997Z,28.67
2023-02-05T22:16:32.759Z,30.13
2023-02-05T22:19:01.582Z,30.10
2023-02-05T22:21:34.003Z,33.50
2023-02-05T22:24:02.543Z,31.90
2023-02-05T22:26:35.174Z,31.53
2023-02-05T22:29:04.855Z,30.77
2023-02-05T22:31:32.236Z,28.07
2023-02-05T22:33:59.796Z,30.13
2023-02-05T22:36:30.057Z,32.27
2023-02-05T22:38:59.454Z,30.37
2023-02-05T22:41:31.896Z,30.23
2023-02-05T22:43:59.976Z,28.43
2023-02-05T22:46:30.113Z,28.63
2023-02-05T22:48:59.663Z,28.50
2023-02-05T22:51:39.077Z,27.93
2023-02-05T22:54:08.062Z,30.37
2023-02-05T22:56:38.359Z,29.80
2023-02-05T22:59:05.302Z,27.37
2023-02-05T23:01:35.013Z,25.27
2023-02-05T23:04:04.234Z,29.03
2023-02-05T23:06:34.297Z,27.97
2023-02-05T23:09:09.987Z,22.43
2023-02-05T23:11:37.410Z,22.70
2023-02-05T23:14:06.130Z,22.57
2023-02-05T23:16:39.545Z,24.10
2023-02-05T23:19:09.638Z,25.10
2023-02-05T23:21:38.708Z,27.77
2023-02-05T23:24:05.853Z,27.50
2023-02-05T23:26:38.624Z,23.87
2023-02-05T23:29:06.450Z,21.17
2023-02-05T23:31:33.766Z,20.93
2023-02-05T23:34:02.973Z,21.07
2023-02-05T23:36:29.799Z,19.40
2023-02-05T23:38:56.659Z,20.17
2023-02-05T23:41:36.491Z,20.43
2023-02-05T23:44:25.410Z,19.43
2023-02-05T23:46:52.906Z,23.87
2023-02-05T23:49:24.199Z,20.13
2023-02-05T23:51:54.312Z,17.07
2023-02-05T23:54:22.798Z,21.70
2023-02-05T23:56:53.413Z,18.63
2023-02-05T23:59:20.303Z,17.67
